sensor_id;sensor_type;location;lat;lon;timestamp;pressure;altitude;pressure_sealevel;temperature;humidity
24045;BME280;26257;49.442;8.422;2022-12-18T00:01:25;101798.00;;;-0.83;87.75
24045;BME280;26257;49.442;8.422;2022-12-18T00:03:52;101797.00;;;-0.85;88.07
24045;BME280;26257;49.442;8.422;2022-12-18T00:06:19;101795.34;;;-0.49;86.58
24045;BME280;26257;49.442;8.422;2022-12-18T00:08:46;101805.41;;;-0.66;85.48
24045;BME280;26257;49.442;8.422;2022-12-18T00:11:17;101790.63;;;-1.00;86.60
24045;BME280;26257;49.442;8.422;2022-12-18T00:13:43;101797.78;;;-1.62;92.23
24045;BME280;26257;49.442;8.422;2022-12-18T00:16:11;101796.13;;;-0.74;90.88
24045;BME280;26257;49.442;8.422;2022-12-18T00:18:37;101805.44;;;-0.87;89.51
24045;BME280;26257;49.442;8.422;2022-12-18T00:21:05;101797.38;;;-0.69;87.96
24045;BME280;26257;49.442;8.422;2022-12-18T00:23:33;101796.84;;;-0.53;86.48
24045;BME280;26257;49.442;8.422;2022-12-18T00:26:04;101805.09;;;-0.92;86.99
24045;BME280;26257;49.442;8.422;2022-12-18T00:28:30;101800.22;;;-1.64;92.39
24045;BME280;26257;49.442;8.422;2022-12-18T00:31:07;101799.75;;;-1.05;90.11
24045;BME280;26257;49.442;8.422;2022-12-18T00:33:34;101801.94;;;-0.88;88.60
24045;BME280;26257;49.442;8.422;2022-12-18T00:38:29;101791.75;;;-0.51;84.65
24045;BME280;26257;49.442;8.422;2022-12-18T00:40:54;101805.00;;;-0.82;86.95
24045;BME280;26257;49.442;8.422;2022-12-18T00:43:19;101794.34;;;-0.51;84.68
24045;BME280;26257;49.442;8.422;2022-12-18T00:45:45;101809.28;;;-0.37;84.90
24045;BME280;26257;49.442;8.422;2022-12-18T00:48:11;101810.03;;;-0.95;86.09
24045;BME280;26257;49.442;8.422;2022-12-18T00:50:37;101809.91;;;-0.51;84.82
24045;BME280;26257;49.442;8.422;2022-12-18T00:53:03;101799.78;;;-0.02;82.41
24045;BME280;26257;49.442;8.422;2022-12-18T00:55:28;101792.44;;;-0.31;83.06
24045;BME280;26257;49.442;8.422;2022-12-18T00:57:54;101797.31;;;-0.24;81.92
24045;BME280;26257;49.442;8.422;2022-12-18T01:00:20;101815.53;;;-0.69;82.48
24045;BME280;26257;49.442;8.422;2022-12-18T01:02:45;101814.34;;;-0.27;83.15
24045;BME280;26257;49.442;8.422;2022-12-18T01:05:12;101804.75;;;-0.28;83.26
24045;BME280;26257;49.442;8.422;2022-12-18T01:07:39;101796.41;;;-0.24;84.02
24045;BME280;26257;49.442;8.422;2022-12-18T01:10:05;101797.09;;;-0.27;82.46
24045;BME280;26257;49.442;8.422;2022-12-18T01:12:32;101805.31;;;-0.32;84.67
24045;BME280;26257;49.442;8.422;2022-12-18T01:14:57;101809.03;;;-0.40;82.25
24045;BME280;26257;49.442;8.422;2022-12-18T01:17:23;101805.06;;;-0.47;82.41
24045;BME280;26257;49.442;8.422;2022-12-18T01:19:50;101798.13;;;-0.81;83.09
24045;BME280;26257;49.442;8.422;2022-12-18T01:22:15;101806.03;;;-0.80;86.83
24045;BME280;26257;49.442;8.422;2022-12-18T01:24:40;101803.63;;;-0.55;86.31
24045;BME280;26257;49.442;8.422;2022-12-18T01:27:06;101801.59;;;-0.36;83.26
24045;BME280;26257;49.442;8.422;2022-12-18T01:29:32;101806.91;;;-0.34;83.51
24045;BME280;26257;49.442;8.422;2022-12-18T01:31:57;101819.13;;;-1.33;84.80
24045;BME280;26257;49.442;8.422;2022-12-18T01:34:23;101822.84;;;-1.08;90.87
24045;BME280;26257;49.442;8.422;2022-12-18T01:36:49;101817.13;;;-0.71;87.25
24045;BME280;26257;49.442;8.422;2022-12-18T01:39:17;101802.44;;;-1.15;89.17
24045;BME280;26257;49.442;8.422;2022-12-18T01:41:45;101798.00;;;-0.83;88.97
24045;BME280;26257;49.442;8.422;2022-12-18T01:47:45;101802.84;;;-0.42;88.47
24045;BME280;26257;49.442;8.422;2022-12-18T01:52:59;101801.28;;;-0.29;83.98
24045;BME280;26257;49.442;8.422;2022-12-18T01:55:28;101821.84;;;-0.65;82.05
24045;BME280;26257;49.442;8.422;2022-12-18T01:57:56;101820.44;;;-0.38;83.23
24045;BME280;26257;49.442;8.422;2022-12-18T02:00:23;101822.44;;;-0.57;85.76
24045;BME280;26257;49.442;8.422;2022-12-18T02:02:49;101805.19;;;-0.45;83.12
24045;BME280;26257;49.442;8.422;2022-12-18T02:05:29;101808.19;;;-0.63;80.71
24045;BME280;26257;49.442;8.422;2022-12-18T02:08:22;101798.19;;;-0.58;82.20
24045;BME280;26257;49.442;8.422;2022-12-18T02:13:32;101817.50;;;-0.88;81.50
24045;BME280;26257;49.442;8.422;2022-12-18T02:16:02;101824.75;;;-0.84;82.51
24045;BME280;26257;49.442;8.422;2022-12-18T02:18:36;101824.44;;;-0.77;81.63
24045;BME280;26257;49.442;8.422;2022-12-18T02:21:24;101826.19;;;-0.87;81.18
24045;BME280;26257;49.442;8.422;2022-12-18T02:24:18;101844.03;;;-1.99;82.73
24045;BME280;26257;49.442;8.422;2022-12-18T02:26:58;101827.38;;;-1.05;83.32
24045;BME280;26257;49.442;8.422;2022-12-18T02:29:38;101829.31;;;-1.46;82.78
24045;BME280;26257;49.442;8.422;2022-12-18T02:32:10;101835.06;;;-0.95;82.77
24045;BME280;26257;49.442;8.422;2022-12-18T02:34:40;101823.09;;;-1.05;81.93
24045;BME280;26257;49.442;8.422;2022-12-18T02:37:09;101815.06;;;-0.75;82.22
24045;BME280;26257;49.442;8.422;2022-12-18T02:39:38;101815.63;;;-0.79;80.98
24045;BME280;26257;49.442;8.422;2022-12-18T02:42:05;101813.94;;;-1.33;81.51
24045;BME280;26257;49.442;8.422;2022-12-18T02:44:35;101809.47;;;-1.24;82.63
24045;BME280;26257;49.442;8.422;2022-12-18T02:47:00;101807.22;;;-1.19;83.48
24045;BME280;26257;49.442;8.422;2022-12-18T03:08:57;101827.34;;;-2.02;100.00
24045;BME280;26257;49.442;8.422;2022-12-18T03:11:25;101809.34;;;-1.47;100.00
24045;BME280;26257;49.442;8.422;2022-12-18T03:14:12;101792.28;;;-1.55;96.71
24045;BME280;26257;49.442;8.422;2022-12-18T03:16:41;101789.81;;;-1.32;93.41
24045;BME280;26257;49.442;8.422;2022-12-18T03:19:12;101783.59;;;-1.12;91.03
24045;BME280;26257;49.442;8.422;2022-12-18T03:21:45;101768.59;;;-0.72;87.45
24045;BME280;26257;49.442;8.422;2022-12-18T03:24:11;101785.34;;;-0.90;87.58
24045;BME280;26257;49.442;8.422;2022-12-18T03:26:41;101804.34;;;-1.56;88.59
24045;BME280;26257;49.442;8.422;2022-12-18T03:29:13;101818.47;;;-1.31;90.27
24045;BME280;26257;49.442;8.422;2022-12-18T03:31:48;101808.88;;;-1.10;87.66
24045;BME280;26257;49.442;8.422;2022-12-18T03:34:20;101804.19;;;-1.47;88.07
24045;BME280;26257;49.442;8.422;2022-12-18T03:36:48;101815.00;;;-0.98;86.12
24045;BME280;26257;49.442;8.422;2022-12-18T03:39:13;101815.47;;;-0.92;85.60
24045;BME280;26257;49.442;8.422;2022-12-18T03:41:59;101809.41;;;-1.14;83.51
24045;BME280;26257;49.442;8.422;2022-12-18T03:44:37;101807.84;;;-1.34;87.25
24045;BME280;26257;49.442;8.422;2022-12-18T03:52:42;101815.69;;;-0.44;83.55
24045;BME280;26257;49.442;8.422;2022-12-18T03:55:11;101810.38;;;-1.02;82.85
24045;BME280;26257;49.442;8.422;2022-12-18T03:57:38;101812.50;;;-0.51;83.60
24045;BME280;26257;49.442;8.422;2022-12-18T04:00:11;101819.97;;;-1.44;83.93
24045;BME280;26257;49.442;8.422;2022-12-18T04:02:39;101823.69;;;-1.62;87.00
24045;BME280;26257;49.442;8.422;2022-12-18T04:05:07;101828.88;;;-1.19;87.42
24045;BME280;26257;49.442;8.422;2022-12-18T04:07:33;101817.69;;;-0.96;85.23
24045;BME280;26257;49.442;8.422;2022-12-18T04:10:01;101805.69;;;-0.73;83.60
24045;BME280;26257;49.442;8.422;2022-12-18T04:12:28;101809.31;;;-1.04;85.16
24045;BME280;26257;49.442;8.422;2022-12-18T04:14:54;101795.69;;;-0.56;84.58
24045;BME280;26257;49.442;8.422;2022-12-18T04:17:20;101797.09;;;-0.27;82.92
24045;BME280;26257;49.442;8.422;2022-12-18T04:19:45;101803.81;;;-0.52;80.85
24045;BME280;26257;49.442;8.422;2022-12-18T04:22:11;101799.44;;;-1.19;83.66
24045;BME280;26257;49.442;8.422;2022-12-18T04:24:36;101799.97;;;-0.57;82.77
24045;BME280;26257;49.442;8.422;2022-12-18T04:27:02;101790.06;;;-0.51;80.69
24045;BME280;26257;49.442;8.422;2022-12-18T04:29:28;101783.72;;;-1.11;82.82
24045;BME280;26257;49.442;8.422;2022-12-18T04:31:54;101792.09;;;-0.58;82.57
24045;BME280;26257;49.442;8.422;2022-12-18T04:34:19;101784.84;;;-0.63;81.82
24045;BME280;26257;49.442;8.422;2022-12-18T04:36:45;101789.56;;;-2.10;84.75
24045;BME280;26257;49.442;8.422;2022-12-18T04:39:10;101796.75;;;-1.43;86.71
24045;BME280;26257;49.442;8.422;2022-12-18T04:41:36;101786.81;;;-1.27;84.36
24045;BME280;26257;49.442;8.422;2022-12-18T04:44:01;101794.06;;;-0.89;82.03
24045;BME280;26257;49.442;8.422;2022-12-18T04:46:27;101802.75;;;-0.89;80.27
24045;BME280;26257;49.442;8.422;2022-12-18T04:48:52;101793.50;;;-1.07;81.95
24045;BME280;26257;49.442;8.422;2022-12-18T04:51:17;101795.31;;;-1.39;83.27
24045;BME280;26257;49.442;8.422;2022-12-18T04:53:43;101800.06;;;-1.55;84.56
24045;BME280;26257;49.442;8.422;2022-12-18T04:56:11;101795.13;;;-1.31;82.45
24045;BME280;26257;49.442;8.422;2022-12-18T04:58:38;101805.13;;;-1.35;82.39
24045;BME280;26257;49.442;8.422;2022-12-18T05:01:08;101797.78;;;-1.62;84.51
24045;BME280;26257;49.442;8.422;2022-12-18T05:03:34;101809.72;;;-1.64;86.25
24045;BME280;26257;49.442;8.422;2022-12-18T05:05:59;101820.16;;;-2.36;91.05
24045;BME280;26257;49.442;8.422;2022-12-18T05:08:25;101826.59;;;-2.21;91.27
24045;BME280;26257;49.442;8.422;2022-12-18T05:11:06;101835.13;;;-1.70;88.95
24045;BME280;26257;49.442;8.422;2022-12-18T05:13:32;101816.03;;;-1.93;88.02
24045;BME280;26257;49.442;8.422;2022-12-18T05:15:58;101813.13;;;-1.54;85.51
24045;BME280;26257;49.442;8.422;2022-12-18T05:18:23;101809.97;;;-1.93;86.87
24045;BME280;26257;49.442;8.422;2022-12-18T05:20:53;101830.44;;;-2.58;90.37
24045;BME280;26257;49.442;8.422;2022-12-18T05:23:21;101835.53;;;-2.18;90.57
24045;BME280;26257;49.442;8.422;2022-12-18T05:25:55;101825.22;;;-2.38;90.11
24045;BME280;26257;49.442;8.422;2022-12-18T05:28:24;101815.13;;;-1.61;89.22
24045;BME280;26257;49.442;8.422;2022-12-18T05:30:51;101817.09;;;-1.69;87.98
24045;BME280;26257;49.442;8.422;2022-12-18T05:33:21;101826.09;;;-1.75;85.71
24045;BME280;26257;49.442;8.422;2022-12-18T05:35:53;101816.19;;;-1.69;88.13
24045;BME280;26257;49.442;8.422;2022-12-18T05:38:20;101799.22;;;-1.98;88.88
24045;BME280;26257;49.442;8.422;2022-12-18T05:40:47;101798.56;;;-1.42;86.06
24045;BME280;26257;49.442;8.422;2022-12-18T05:43:13;101799.94;;;-1.35;85.74
24045;BME280;26257;49.442;8.422;2022-12-18T05:45:39;101803.69;;;-1.53;84.47
24045;BME280;26257;49.442;8.422;2022-12-18T05:48:05;101818.69;;;-1.28;85.25
24045;BME280;26257;49.442;8.422;2022-12-18T05:50:34;101820.09;;;-1.21;85.01
24045;BME280;26257;49.442;8.422;2022-12-18T05:52:59;101812.47;;;-1.08;83.70
24045;BME280;26257;49.442;8.422;2022-12-18T05:55:24;101809.72;;;-1.21;81.96
24045;BME280;26257;49.442;8.422;2022-12-18T05:57:51;101801.03;;;-1.43;82.15
24045;BME280;26257;49.442;8.422;2022-12-18T06:00:16;101804.22;;;-1.14;82.28
24045;BME280;26257;49.442;8.422;2022-12-18T06:02:42;101810.19;;;-1.15;83.06
24045;BME280;26257;49.442;8.422;2022-12-18T06:05:07;101811.88;;;-1.59;84.55
24045;BME280;26257;49.442;8.422;2022-12-18T06:07:33;101814.72;;;-1.34;84.74
24045;BME280;26257;49.442;8.422;2022-12-18T06:09:58;101809.06;;;-1.07;83.55
24045;BME280;26257;49.442;8.422;2022-12-18T06:12:24;101832.13;;;-1.00;82.04
24045;BME280;26257;49.442;8.422;2022-12-18T06:14:49;101821.09;;;-0.97;81.83
24045;BME280;26257;49.442;8.422;2022-12-18T06:17:14;101829.63;;;-1.10;81.41
24045;BME280;26257;49.442;8.422;2022-12-18T06:19:40;101825.97;;;-1.12;81.77
24045;BME280;26257;49.442;8.422;2022-12-18T06:22:05;101831.66;;;-1.49;83.69
24045;BME280;26257;49.442;8.422;2022-12-18T06:24:30;101828.22;;;-1.16;82.71
24045;BME280;26257;49.442;8.422;2022-12-18T06:26:56;101836.34;;;-1.55;83.55
24045;BME280;26257;49.442;8.422;2022-12-18T06:29:21;101836.31;;;-2.19;84.70
24045;BME280;26257;49.442;8.422;2022-12-18T06:31:47;101834.63;;;-1.23;84.10
24045;BME280;26257;49.442;8.422;2022-12-18T06:34:12;101838.28;;;-1.84;86.39
24045;BME280;26257;49.442;8.422;2022-12-18T06:36:37;101833.25;;;-1.51;84.11
24045;BME280;26257;49.442;8.422;2022-12-18T06:39:03;101825.25;;;-1.43;82.63
24045;BME280;26257;49.442;8.422;2022-12-18T06:41:28;101828.06;;;-1.61;82.87
24045;BME280;26257;49.442;8.422;2022-12-18T06:43:55;101828.22;;;-1.38;82.41
24045;BME280;26257;49.442;8.422;2022-12-18T06:46:22;101839.50;;;-1.59;82.53
24045;BME280;26257;49.442;8.422;2022-12-18T06:48:49;101838.72;;;-1.68;82.91
24045;BME280;26257;49.442;8.422;2022-12-18T06:51:19;101862.84;;;-2.21;84.26
24045;BME280;26257;49.442;8.422;2022-12-18T06:53:45;101862.75;;;-2.33;90.34
24045;BME280;26257;49.442;8.422;2022-12-18T06:56:13;101852.25;;;-1.72;87.35
24045;BME280;26257;49.442;8.422;2022-12-18T06:58:39;101851.75;;;-1.78;86.57
24045;BME280;26257;49.442;8.422;2022-12-18T07:01:07;101857.47;;;-1.93;85.54
24045;BME280;26257;49.442;8.422;2022-12-18T07:03:33;101869.91;;;-1.89;86.08
24045;BME280;26257;49.442;8.422;2022-12-18T07:05:58;101853.34;;;-1.91;85.55
24045;BME280;26257;49.442;8.422;2022-12-18T07:08:24;101863.47;;;-2.04;86.86
24045;BME280;26257;49.442;8.422;2022-12-18T07:10:50;101865.53;;;-2.00;85.65
24045;BME280;26257;49.442;8.422;2022-12-18T07:13:16;101866.22;;;-2.22;86.50
24045;BME280;26257;49.442;8.422;2022-12-18T07:15:43;101867.59;;;-1.96;87.16
24045;BME280;26257;49.442;8.422;2022-12-18T07:18:08;101871.66;;;-2.39;86.02
24045;BME280;26257;49.442;8.422;2022-12-18T07:20:34;101872.06;;;-2.55;89.68
24045;BME280;26257;49.442;8.422;2022-12-18T07:23:02;101873.91;;;-2.64;88.54
24045;BME280;26257;49.442;8.422;2022-12-18T07:25:27;101890.41;;;-2.12;89.03
24045;BME280;26257;49.442;8.422;2022-12-18T07:27:54;101878.41;;;-2.41;88.00
24045;BME280;26257;49.442;8.422;2022-12-18T07:30:19;101886.31;;;-2.30;89.48
24045;BME280;26257;49.442;8.422;2022-12-18T07:32:46;101886.53;;;-2.17;86.07
24045;BME280;26257;49.442;8.422;2022-12-18T07:35:13;101884.66;;;-1.98;86.16
24045;BME280;26257;49.442;8.422;2022-12-18T07:37:39;101883.41;;;-1.61;84.16
24045;BME280;26257;49.442;8.422;2022-12-18T07:40:05;101879.88;;;-1.83;84.13
24045;BME280;26257;49.442;8.422;2022-12-18T07:42:31;101890.13;;;-2.05;85.08
24045;BME280;26257;49.442;8.422;2022-12-18T07:45:00;101887.88;;;-1.80;84.36
24045;BME280;26257;49.442;8.422;2022-12-18T07:47:27;101886.13;;;-2.21;84.03
24045;BME280;26257;49.442;8.422;2022-12-18T07:49:52;101884.47;;;-2.21;85.04
24045;BME280;26257;49.442;8.422;2022-12-18T07:52:17;101893.56;;;-1.84;83.72
24045;BME280;26257;49.442;8.422;2022-12-18T07:54:43;101897.84;;;-1.84;82.39
24045;BME280;26257;49.442;8.422;2022-12-18T07:57:09;101891.59;;;-2.28;83.63
24045;BME280;26257;49.442;8.422;2022-12-18T07:59:35;101900.78;;;-2.12;85.56
24045;BME280;26257;49.442;8.422;2022-12-18T08:02:00;101904.53;;;-2.38;84.21
24045;BME280;26257;49.442;8.422;2022-12-18T08:04:26;101905.47;;;-2.38;85.17
24045;BME280;26257;49.442;8.422;2022-12-18T08:06:52;101903.56;;;-1.89;82.67
24045;BME280;26257;49.442;8.422;2022-12-18T08:09:17;101896.91;;;-2.37;84.47
24045;BME280;26257;49.442;8.422;2022-12-18T08:11:44;101894.00;;;-2.00;83.95
24045;BME280;26257;49.442;8.422;2022-12-18T08:14:09;101896.06;;;-1.85;81.82
24045;BME280;26257;49.442;8.422;2022-12-18T08:16:35;101906.63;;;-1.82;82.72
24045;BME280;26257;49.442;8.422;2022-12-18T08:19:00;101896.78;;;-1.76;82.30
24045;BME280;26257;49.442;8.422;2022-12-18T08:21:29;101896.03;;;-1.22;80.87
24045;BME280;26257;49.442;8.422;2022-12-18T08:23:57;101911.84;;;-1.93;80.17
24045;BME280;26257;49.442;8.422;2022-12-18T08:34:07;101896.66;;;-0.93;78.14
24045;BME280;26257;49.442;8.422;2022-12-18T08:36:33;101881.34;;;-0.90;75.67
24045;BME280;26257;49.442;8.422;2022-12-18T08:38:58;101879.47;;;-1.88;79.91
24045;BME280;26257;49.442;8.422;2022-12-18T08:41:24;101878.06;;;-1.09;79.45
24045;BME280;26257;49.442;8.422;2022-12-18T08:43:49;101878.69;;;-1.23;79.84
24045;BME280;26257;49.442;8.422;2022-12-18T08:46:38;101883.81;;;-1.66;81.12
24045;BME280;26257;49.442;8.422;2022-12-18T09:19:23;101845.13;;;1.98;64.46
24045;BME280;26257;49.442;8.422;2022-12-18T09:21:49;101830.88;;;2.32;62.05
24045;BME280;26257;49.442;8.422;2022-12-18T09:24:20;101839.09;;;3.34;60.80
24045;BME280;26257;49.442;8.422;2022-12-18T09:26:46;101838.59;;;3.12;58.61
24045;BME280;26257;49.442;8.422;2022-12-18T09:29:12;101844.59;;;2.96;56.93
24045;BME280;26257;49.442;8.422;2022-12-18T09:31:42;101832.25;;;4.09;53.82
24045;BME280;26257;49.442;8.422;2022-12-18T09:34:13;101826.13;;;5.17;51.08
24045;BME280;26257;49.442;8.422;2022-12-18T09:36:40;101843.09;;;3.71;51.90
24045;BME280;26257;49.442;8.422;2022-12-18T09:39:06;101854.13;;;5.02;51.09
24045;BME280;26257;49.442;8.422;2022-12-18T09:41:42;101856.59;;;5.31;49.93
24045;BME280;26257;49.442;8.422;2022-12-18T09:44:45;101850.38;;;6.66;45.57
24045;BME280;26257;49.442;8.422;2022-12-18T09:47:34;101855.75;;;6.87;44.38
24045;BME280;26257;49.442;8.422;2022-12-18T09:52:51;101873.19;;;6.14;45.20
24045;BME280;26257;49.442;8.422;2022-12-18T09:55:31;101883.09;;;6.55;45.27
24045;BME280;26257;49.442;8.422;2022-12-18T09:58:28;101882.59;;;5.60;45.61
24045;BME280;26257;49.442;8.422;2022-12-18T10:00:58;101867.06;;;7.03;43.33
24045;BME280;26257;49.442;8.422;2022-12-18T10:03:33;101854.41;;;7.33;42.17
24045;BME280;26257;49.442;8.422;2022-12-18T10:06:13;101857.59;;;6.70;42.60
24045;BME280;26257;49.442;8.422;2022-12-18T10:15:02;101837.19;;;8.62;39.26
24045;BME280;26257;49.442;8.422;2022-12-18T10:20:43;101848.09;;;8.71;38.25
24045;BME280;26257;49.442;8.422;2022-12-18T10:23:33;101843.88;;;9.44;37.72
24045;BME280;26257;49.442;8.422;2022-12-18T10:26:10;101855.34;;;8.54;38.42
24045;BME280;26257;49.442;8.422;2022-12-18T10:28:39;101851.75;;;8.32;39.29
24045;BME280;26257;49.442;8.422;2022-12-18T10:31:05;101833.59;;;7.98;39.18
24045;BME280;26257;49.442;8.422;2022-12-18T10:33:33;101839.66;;;6.61;42.15
24045;BME280;26257;49.442;8.422;2022-12-18T10:35:58;101829.81;;;6.57;42.83
24045;BME280;26257;49.442;8.422;2022-12-18T10:38:27;101822.19;;;6.27;43.16
24045;BME280;26257;49.442;8.422;2022-12-18T10:41:38;101816.00;;;6.07;44.56
24045;BME280;26257;49.442;8.422;2022-12-18T10:43:40;101819.69;;;6.82;43.51
24045;BME280;26257;49.442;8.422;2022-12-18T10:46:24;101822.03;;;7.15;42.94
24045;BME280;26257;49.442;8.422;2022-12-18T10:48:53;101803.56;;;7.72;42.59
24045;BME280;26257;49.442;8.422;2022-12-18T10:51:28;101809.56;;;6.72;43.44
24045;BME280;26257;49.442;8.422;2022-12-18T10:53:55;101820.84;;;6.52;44.54
24045;BME280;26257;49.442;8.422;2022-12-18T10:56:24;101820.97;;;6.55;44.89
24045;BME280;26257;49.442;8.422;2022-12-18T10:59:03;101822.75;;;6.74;45.15
24045;BME280;26257;49.442;8.422;2022-12-18T11:02:07;101808.91;;;7.34;43.52
24045;BME280;26257;49.442;8.422;2022-12-18T11:04:51;101824.53;;;6.93;43.58
24045;BME280;26257;49.442;8.422;2022-12-18T11:07:17;101836.88;;;6.58;44.63
24045;BME280;26257;49.442;8.422;2022-12-18T11:09:43;101825.00;;;7.61;42.41
24045;BME280;26257;49.442;8.422;2022-12-18T11:12:15;101831.69;;;6.97;43.38
24045;BME280;26257;49.442;8.422;2022-12-18T11:17:29;101822.38;;;7.41;42.88
24045;BME280;26257;49.442;8.422;2022-12-18T11:20:00;101819.53;;;6.25;44.54
24045;BME280;26257;49.442;8.422;2022-12-18T11:22:35;101814.63;;;6.87;44.13
24045;BME280;26257;49.442;8.422;2022-12-18T11:25:24;101826.28;;;6.94;43.89
24045;BME280;26257;49.442;8.422;2022-12-18T11:27:53;101820.75;;;5.98;45.71
24045;BME280;26257;49.442;8.422;2022-12-18T11:30:23;101823.00;;;6.08;45.86
24045;BME280;26257;49.442;8.422;2022-12-18T11:32:53;101823.41;;;6.33;44.93
24045;BME280;26257;49.442;8.422;2022-12-18T11:35:20;101815.84;;;6.04;45.26
24045;BME280;26257;49.442;8.422;2022-12-18T11:37:51;101820.28;;;6.22;46.02
24045;BME280;26257;49.442;8.422;2022-12-18T11:40:22;101825.22;;;7.08;44.97
24045;BME280;26257;49.442;8.422;2022-12-18T11:43:10;101811.19;;;6.70;44.72
24045;BME280;26257;49.442;8.422;2022-12-18T11:45:49;101800.69;;;6.88;44.19
24045;BME280;26257;49.442;8.422;2022-12-18T11:48:22;101793.00;;;6.93;44.39
24045;BME280;26257;49.442;8.422;2022-12-18T11:50:53;101799.81;;;6.52;45.18
24045;BME280;26257;49.442;8.422;2022-12-18T11:53:20;101808.81;;;6.94;44.23
24045;BME280;26257;49.442;8.422;2022-12-18T11:56:02;101806.81;;;7.08;43.60
24045;BME280;26257;49.442;8.422;2022-12-18T12:07:29;101792.22;;;6.04;46.68
24045;BME280;26257;49.442;8.422;2022-12-18T12:15:39;101779.03;;;6.20;47.42
24045;BME280;26257;49.442;8.422;2022-12-18T12:20:57;101768.91;;;6.83;45.47
24045;BME280;26257;49.442;8.422;2022-12-18T12:26:06;101779.47;;;5.94;47.35
24045;BME280;26257;49.442;8.422;2022-12-18T12:34:34;101783.50;;;5.87;47.61
24045;BME280;26257;49.442;8.422;2022-12-18T12:39:49;101773.38;;;5.27;48.88
24045;BME280;26257;49.442;8.422;2022-12-18T12:42:39;101766.72;;;6.19;47.16
24045;BME280;26257;49.442;8.422;2022-12-18T12:48:06;101767.41;;;5.63;47.58
24045;BME280;26257;49.442;8.422;2022-12-18T12:50:36;101771.59;;;5.26;48.54
24045;BME280;26257;49.442;8.422;2022-12-18T12:53:06;101772.50;;;4.78;49.84
24045;BME280;26257;49.442;8.422;2022-12-18T12:55:34;101770.44;;;4.41;50.37
24045;BME280;26257;49.442;8.422;2022-12-18T12:59:05;101758.50;;;4.62;50.96
24045;BME280;26257;49.442;8.422;2022-12-18T13:06:25;101742.22;;;4.35;51.02
24045;BME280;26257;49.442;8.422;2022-12-18T13:08:57;101723.66;;;4.63;51.53
24045;BME280;26257;49.442;8.422;2022-12-18T13:11:45;101732.16;;;4.75;51.03
24045;BME280;26257;49.442;8.422;2022-12-18T13:14:34;101729.84;;;4.49;52.19
24045;BME280;26257;49.442;8.422;2022-12-18T13:20:03;101731.69;;;4.66;51.81
24045;BME280;26257;49.442;8.422;2022-12-18T13:22:39;101726.91;;;4.26;52.82
24045;BME280;26257;49.442;8.422;2022-12-18T13:25:29;101716.22;;;4.07;52.69
24045;BME280;26257;49.442;8.422;2022-12-18T13:28:08;101720.81;;;3.66;53.70
24045;BME280;26257;49.442;8.422;2022-12-18T13:36:10;101716.50;;;3.37;55.30
24045;BME280;26257;49.442;8.422;2022-12-18T13:38:38;101720.56;;;3.32;56.61
24045;BME280;26257;49.442;8.422;2022-12-18T13:41:25;101719.16;;;3.52;55.89
24045;BME280;26257;49.442;8.422;2022-12-18T13:43:53;101712.72;;;3.03;57.27
24045;BME280;26257;49.442;8.422;2022-12-18T13:46:28;101711.75;;;3.45;57.15
24045;BME280;26257;49.442;8.422;2022-12-18T13:51:34;101707.75;;;3.66;57.01
24045;BME280;26257;49.442;8.422;2022-12-18T13:54:18;101710.09;;;3.03;57.61
24045;BME280;26257;49.442;8.422;2022-12-18T13:56:46;101720.19;;;3.26;58.26
24045;BME280;26257;49.442;8.422;2022-12-18T13:59:22;101718.84;;;3.62;57.44
24045;BME280;26257;49.442;8.422;2022-12-18T14:01:56;101711.56;;;3.56;57.39
24045;BME280;26257;49.442;8.422;2022-12-18T14:06:53;101719.56;;;3.74;56.51
24045;BME280;26257;49.442;8.422;2022-12-18T14:09:31;101711.34;;;3.68;56.82
24045;BME280;26257;49.442;8.422;2022-12-18T14:12:00;101710.94;;;3.91;57.18
24045;BME280;26257;49.442;8.422;2022-12-18T14:14:46;101709.38;;;3.64;57.44
24045;BME280;26257;49.442;8.422;2022-12-18T14:17:14;101697.13;;;3.63;57.47
24045;BME280;26257;49.442;8.422;2022-12-18T14:19:49;101695.63;;;3.52;57.65
24045;BME280;26257;49.442;8.422;2022-12-18T14:22:21;101707.44;;;3.31;58.70
24045;BME280;26257;49.442;8.422;2022-12-18T14:24:47;101711.31;;;3.52;58.52
24045;BME280;26257;49.442;8.422;2022-12-18T14:27:25;101702.91;;;3.57;58.66
24045;BME280;26257;49.442;8.422;2022-12-18T14:29:51;101712.81;;;3.63;57.76
24045;BME280;26257;49.442;8.422;2022-12-18T14:32:19;101712.63;;;3.01;59.12
24045;BME280;26257;49.442;8.422;2022-12-18T14:34:50;101719.53;;;2.59;60.94
24045;BME280;26257;49.442;8.422;2022-12-18T14:37:20;101722.31;;;2.47;62.10
24045;BME280;26257;49.442;8.422;2022-12-18T14:42:22;101734.50;;;2.20;64.14
24045;BME280;26257;49.442;8.422;2022-12-18T14:44:47;101726.91;;;2.10;65.04
24045;BME280;26257;49.442;8.422;2022-12-18T14:47:17;101731.66;;;1.90;66.05
24045;BME280;26257;49.442;8.422;2022-12-18T14:49:43;101724.19;;;2.09;65.64
24045;BME280;26257;49.442;8.422;2022-12-18T14:52:23;101727.63;;;1.95;65.43
24045;BME280;26257;49.442;8.422;2022-12-18T14:54:52;101712.31;;;2.27;65.11
24045;BME280;26257;49.442;8.422;2022-12-18T14:57:30;101706.72;;;2.34;64.71
24045;BME280;26257;49.442;8.422;2022-12-18T15:00:17;101696.75;;;2.14;65.86
24045;BME280;26257;49.442;8.422;2022-12-18T15:02:47;101708.03;;;2.55;65.01
24045;BME280;26257;49.442;8.422;2022-12-18T15:05:29;101706.78;;;2.08;64.93
24045;BME280;26257;49.442;8.422;2022-12-18T15:07:58;101704.00;;;2.32;65.16
24045;BME280;26257;49.442;8.422;2022-12-18T15:15:48;101696.34;;;2.08;67.21
24045;BME280;26257;49.442;8.422;2022-12-18T15:18:16;101694.47;;;2.33;67.26
24045;BME280;26257;49.442;8.422;2022-12-18T15:20:54;101689.44;;;2.36;66.46
24045;BME280;26257;49.442;8.422;2022-12-18T15:26:06;101684.22;;;2.36;65.20
24045;BME280;26257;49.442;8.422;2022-12-18T15:28:53;101694.34;;;2.44;65.05
24045;BME280;26257;49.442;8.422;2022-12-18T15:31:26;101688.50;;;2.21;66.27
24045;BME280;26257;49.442;8.422;2022-12-18T15:36:20;101695.25;;;2.45;65.36
24045;BME280;26257;49.442;8.422;2022-12-18T15:38:50;101680.03;;;2.80;64.83
24045;BME280;26257;49.442;8.422;2022-12-18T15:41:19;101690.28;;;2.77;63.76